Time;durP1;ratioP1;P1;durP2;ratioP2;P2;SDS_P1;SDS_P2;PMS_P1;PMS_P2;Temp;Humidity;BMP_temperature;BMP_pressure;BME280_temperature;BME280_humidity;BME280_pressure;Samples;Min_cycle;Max_cycle;Signal;HPM_P1;HPM_P2
2022/07/07 00:00:16;;;;;;;9.90;5.40;;;;;;;13.99;82.09;98227.52;105369;1284;22738;-83
2022/07/07 00:03:02;;;;;;;7.40;5.10;;;;;;;14.03;81.95;98222.53;105366;1284;25596;-84
2022/07/07 00:05:30;;;;;;;13.00;5.70;;;;;;;13.96;81.78;98221.33;105284;1284;22574;-83
2022/07/07 00:07:59;;;;;;;9.40;5.80;;;;;;;13.96;81.95;98221.92;105229;1284;22627;-84
2022/07/07 00:10:27;;;;;;;7.50;5.80;;;;;;;13.85;82.03;98224.02;105272;1284;24270;-85
2022/07/07 00:12:55;;;;;;;7.30;4.90;;;;;;;13.78;81.97;98220.55;105240;1284;22554;-85
2022/07/07 00:15:22;;;;;;;7.70;5.60;;;;;;;13.96;83.85;98216.19;105228;1284;25470;-83
2022/07/07 00:17:51;;;;;;;8.20;6.10;;;;;;;14.37;83.24;98212.84;105221;1284;22621;-82
2022/07/07 00:20:18;;;;;;;10.60;5.50;;;;;;;14.41;81.54;98209.92;105240;1284;22700;-83
2022/07/07 00:22:46;;;;;;;8.20;5.60;;;;;;;14.21;81.15;98213.21;105223;1284;22791;-84
2022/07/07 00:25:14;;;;;;;10.20;5.70;;;;;;;13.87;81.51;98214.55;105254;1284;23084;-83
2022/07/07 00:27:42;;;;;;;7.30;5.50;;;;;;;13.73;82.00;98208.29;105223;1284;22553;-84
2022/07/07 00:30:11;;;;;;;7.40;5.20;;;;;;;13.97;83.85;98205.36;105272;1284;22712;-83
2022/07/07 00:32:38;;;;;;;6.40;5.70;;;;;;;14.27;81.95;98204.14;105261;1284;22581;-83
2022/07/07 00:35:07;;;;;;;7.70;5.50;;;;;;;14.19;81.35;98202.70;105243;1284;25508;-83
2022/07/07 00:37:35;;;;;;;9.70;5.80;;;;;;;14.15;81.51;98206.48;105254;1284;22553;-83
2022/07/07 00:40:04;;;;;;;9.40;5.40;;;;;;;14.04;81.45;98209.33;105205;1284;25537;-83
2022/07/07 00:42:32;;;;;;;8.50;5.40;;;;;;;13.96;81.92;98209.09;105296;1284;24275;-85
2022/07/07 00:45:00;;;;;;;8.70;5.80;;;;;;;14.00;81.84;98210.80;105449;1284;22867;-84
2022/07/07 00:47:31;;;;;;;7.30;5.90;;;;;;;13.96;81.85;98209.18;105464;1284;22555;-84
2022/07/07 00:49:59;;;;;;;12.40;6.90;;;;;;;13.84;81.68;98209.90;105358;1284;22488;-86
2022/07/07 00:52:26;;;;;;;9.30;6.70;;;;;;;13.65;81.60;98210.21;105342;1284;22567;-85
2022/07/07 00:54:57;;;;;;;10.90;6.20;;;;;;;13.63;82.00;98214.86;105397;1284;23029;-83
2022/07/07 00:57:26;;;;;;;8.00;6.50;;;;;;;13.52;82.05;98218.02;105446;1284;24271;-85
2022/07/07 01:00:01;;;;;;;12.10;8.20;;;;;;;13.24;82.18;98221.80;105352;1284;22565;-85
2022/07/07 01:02:31;;;;;;;10.70;8.50;;;;;;;13.09;82.77;98227.61;105202;1284;25555;-84
2022/07/07 01:05:01;;;;;;;10.30;8.80;;;;;;;13.03;83.08;98232.52;105288;1284;22814;-86
2022/07/07 01:07:31;;;;;;;11.30;8.60;;;;;;;12.97;84.08;98231.09;105367;1284;22759;-85
2022/07/07 01:10:00;;;;;;;10.60;9.30;;;;;;;13.01;84.21;98228.66;105362;1284;25357;-85
2022/07/07 01:12:40;;;;;;;10.80;9.10;;;;;;;13.10;84.72;98228.50;105347;1284;22585;-85
2022/07/07 01:15:10;;;;;;;13.90;8.40;;;;;;;13.19;85.08;98220.54;105292;1284;22693;-84
2022/07/07 01:17:40;;;;;;;11.90;9.90;;;;;;;13.59;85.98;98214.33;105277;1284;22563;-85
2022/07/07 01:20:10;;;;;;;12.10;8.60;;;;;;;13.86;86.54;98212.58;105244;1284;22674;-83
2022/07/07 01:22:39;;;;;;;9.40;7.80;;;;;;;14.17;85.06;98208.65;105290;1284;22636;-84
2022/07/07 01:25:07;;;;;;;14.90;8.60;;;;;;;14.19;85.26;98202.79;105209;1285;22862;-83
2022/07/07 01:27:35;;;;;;;12.00;8.30;;;;;;;14.39;84.41;98205.31;105225;1284;22625;-84
2022/07/07 01:30:04;;;;;;;10.80;8.30;;;;;;;14.42;83.75;98206.57;105193;1284;22653;-85
2022/07/07 01:32:32;;;;;;;9.40;8.10;;;;;;;14.28;83.79;98207.30;105223;1284;24227;-86
2022/07/07 01:35:00;;;;;;;8.30;6.20;;;;;;;14.51;85.39;98209.05;105211;1284;22618;-85
2022/07/07 01:37:27;;;;;;;11.00;7.30;;;;;;;15.03;85.97;98205.71;105131;1284;22556;-83
2022/07/07 01:39:55;;;;;;;9.70;7.60;;;;;;;15.28;83.36;98205.31;105189;1284;22632;-84
2022/07/07 01:42:23;;;;;;;11.50;8.30;;;;;;;15.24;82.89;98201.64;105223;1285;22715;-85
2022/07/07 01:44:51;;;;;;;9.80;8.00;;;;;;;15.17;82.60;98200.50;105277;1284;22607;-85
2022/07/07 01:47:22;;;;;;;8.50;7.40;;;;;;;14.99;82.54;98198.92;105377;1284;23324;-84
2022/07/07 01:49:51;;;;;;;10.70;7.40;;;;;;;14.90;82.55;98191.17;105450;1284;22670;-84
2022/07/07 01:52:19;;;;;;;9.60;6.30;;;;;;;14.84;83.18;98189.22;105423;1284;22719;-84
2022/07/07 01:54:46;;;;;;;9.70;7.50;;;;;;;15.06;82.79;98185.98;105223;1284;258528;-84
2022/07/07 01:57:14;;;;;;;8.30;7.10;;;;;;;15.00;82.13;98186.57;105394;1284;22675;-84
2022/07/07 01:59:43;;;;;;;9.20;6.50;;;;;;;15.12;83.23;98184.77;105408;1285;23966;-84
2022/07/07 02:02:12;;;;;;;8.80;7.30;;;;;;;15.34;82.12;98182.71;105377;1285;25644;-85
2022/07/07 02:04:41;;;;;;;14.20;7.40;;;;;;;15.17;81.18;98182.44;105371;1284;24445;-85
2022/07/07 02:07:09;;;;;;;8.00;7.20;;;;;;;14.92;81.18;98183.67;105394;1284;24219;-87
2022/07/07 02:09:37;;;;;;;11.60;8.00;;;;;;;14.71;80.41;98179.80;105397;1284;23049;-85
2022/07/07 02:12:06;;;;;;;8.40;7.50;;;;;;;14.53;81.47;98176.25;105085;1284;24400;-86
2022/07/07 02:14:34;;;;;;;8.70;7.40;;;;;;;14.52;81.32;98172.95;105378;1284;25511;-85
2022/07/07 02:17:02;;;;;;;10.00;7.00;;;;;;;14.59;81.37;98171.24;105466;1284;25322;-86
2022/07/07 02:19:30;;;;;;;8.80;7.00;;;;;;;14.48;80.56;98174.85;106740;1284;22752;-84
2022/07/07 02:21:58;;;;;;;8.70;6.90;;;;;;;14.35;81.00;98183.05;105610;1285;24400;-86
2022/07/07 02:24:25;;;;;;;11.40;7.50;;;;;;;14.21;80.51;98185.67;105266;1284;24411;-84
2022/07/07 02:26:53;;;;;;;12.00;7.30;;;;;;;13.86;80.74;98190.20;105144;1285;24321;-84
2022/07/07 02:29:21;;;;;;;8.00;6.80;;;;;;;13.55;81.78;98185.67;105257;1284;22555;-86
2022/07/07 02:31:49;;;;;;;8.10;7.20;;;;;;;13.80;85.70;98174.99;105224;1284;22621;-83
2022/07/07 02:34:17;;;;;;;13.10;7.00;;;;;;;14.52;87.12;98160.92;105203;1284;22713;-84
2022/07/07 02:36:45;;;;;;;8.50;7.30;;;;;;;15.12;84.49;98164.08;105250;1284;24225;-85
2022/07/07 02:39:13;;;;;;;13.40;8.00;;;;;;;14.99;80.83;98172.20;105192;1283;22765;-84
2022/07/07 02:41:41;;;;;;;12.50;8.20;;;;;;;14.48;80.13;98180.59;105212;1284;24268;-85
2022/07/07 02:44:09;;;;;;;10.90;8.70;;;;;;;13.98;80.72;98191.94;105371;1284;22568;-86
2022/07/07 02:46:37;;;;;;;15.40;9.70;;;;;;;13.61;81.40;98190.36;105381;1284;24525;-85
2022/07/07 02:49:05;;;;;;;10.50;8.60;;;;;;;13.78;86.46;98186.48;105363;1284;25231;-84
2022/07/07 02:51:33;;;;;;;10.90;9.00;;;;;;;14.33;85.48;98185.85;105466;1284;25409;-86
2022/07/07 02:54:00;;;;;;;12.50;10.20;;;;;;;14.61;83.39;98185.54;105061;1285;25250;-85
2022/07/07 02:56:28;;;;;;;9.60;8.70;;;;;;;14.76;83.05;98184.98;105325;1285;25235;-85
2022/07/07 02:58:56;;;;;;;10.30;8.60;;;;;;;14.91;81.61;98185.36;105394;1284;22556;-85
2022/07/07 03:01:24;;;;;;;10.40;8.20;;;;;;;14.80;80.51;98185.52;105341;1284;24313;-85
2022/07/07 03:03:52;;;;;;;13.80;8.90;;;;;;;14.66;81.57;98184.46;105312;1284;24250;-85
2022/07/07 03:06:20;;;;;;;11.00;8.60;;;;;;;14.96;81.39;98182.00;105213;1284;23985;-86
2022/07/07 03:08:48;;;;;;;10.10;8.70;;;;;;;14.86;80.88;98179.59;105215;1284;24296;-84
2022/07/07 03:11:16;;;;;;;13.20;10.90;;;;;;;15.14;82.44;98172.15;105190;1284;22638;-83
2022/07/07 03:13:43;;;;;;;11.80;8.60;;;;;;;15.39;81.13;98172.52;105144;1284;25295;-85
2022/07/07 03:16:11;;;;;;;9.40;8.50;;;;;;;15.39;79.81;98181.53;105214;1284;22561;-84
2022/07/07 03:18:39;;;;;;;12.70;10.10;;;;;;;15.04;79.48;98175.67;105233;1284;25411;-83
2022/07/07 03:21:07;;;;;;;10.70;9.60;;;;;;;14.94;79.99;98171.73;105197;1284;22585;-84
2022/07/07 03:23:35;;;;;;;13.80;9.40;;;;;;;14.68;79.79;98172.80;105202;1284;22567;-84
2022/07/07 03:26:03;;;;;;;12.70;9.00;;;;;;;14.45;79.83;98173.23;105212;1284;22557;-84
2022/07/07 03:28:32;;;;;;;15.30;9.70;;;;;;;14.19;79.78;98175.37;105892;1284;22557;-84
2022/07/07 03:31:00;;;;;;;13.40;11.50;;;;;;;14.11;81.14;98172.98;106456;1284;23742;-85
2022/07/07 03:33:28;;;;;;;17.20;14.00;;;;;;;14.36;81.14;98162.64;105364;1284;25559;-86
2022/07/07 03:35:57;;;;;;;13.80;10.60;;;;;;;14.46;80.54;98161.95;105288;1284;25586;-86
2022/07/07 03:38:25;;;;;;;14.60;12.00;;;;;;;14.51;80.30;98160.51;105191;1283;22564;-86
2022/07/07 03:40:53;;;;;;;13.10;11.70;;;;;;;14.52;80.62;98159.49;105162;1284;22553;-85
2022/07/07 03:43:29;;;;;;;13.00;11.70;;;;;;;14.75;81.51;98159.25;105072;1285;22566;-85
2022/07/07 03:45:57;;;;;;;14.60;12.90;;;;;;;14.73;79.89;98160.05;105178;1284;24010;-85
2022/07/07 03:48:25;;;;;;;15.30;13.80;;;;;;;14.47;80.42;98161.64;105215;1284;22582;-85
2022/07/07 03:50:53;;;;;;;15.30;12.20;;;;;;;14.54;80.79;98159.48;105203;1284;22556;-85
2022/07/07 03:53:21;;;;;;;15.90;12.80;;;;;;;14.51;80.24;98158.66;105308;1284;23956;-84
2022/07/07 03:55:49;;;;;;;13.10;11.80;;;;;;;14.51;80.87;98154.15;105209;1284;22654;-84
2022/07/07 03:58:17;;;;;;;15.60;14.20;;;;;;;14.88;83.32;98150.85;105287;1284;23215;-83
2022/07/07 04:00:45;;;;;;;16.20;14.40;;;;;;;15.34;81.96;98154.13;105361;1284;22616;-85
2022/07/07 04:03:13;;;;;;;13.00;11.60;;;;;;;15.52;80.38;98156.76;105363;1284;25398;-86
2022/07/07 04:05:41;;;;;;;14.80;12.30;;;;;;;15.52;80.00;98152.16;105084;1284;22570;-82
2022/07/07 04:08:09;;;;;;;14.00;12.50;;;;;;;15.54;80.96;98149.85;105338;1284;22994;-85
2022/07/07 04:10:37;;;;;;;15.00;11.00;;;;;;;15.73;80.02;98155.30;105393;1284;22557;-84
2022/07/07 04:13:05;;;;;;;15.10;12.10;;;;;;;15.61;79.30;98158.52;105277;1284;22560;-85
2022/07/07 04:15:34;;;;;;;14.60;11.80;;;;;;;15.49;79.49;98159.04;105193;1284;24341;-85
2022/07/07 04:18:02;;;;;;;15.80;12.50;;;;;;;15.46;80.07;98161.15;105167;1284;22882;-85
2022/07/07 04:20:31;;;;;;;17.10;13.30;;;;;;;15.45;80.14;98162.23;105221;1284;25243;-83
2022/07/07 04:22:59;;;;;;;15.10;13.00;;;;;;;15.49;80.28;98163.67;105330;1284;22726;-84
2022/07/07 04:25:33;;;;;;;;;;;;;;;15.50;80.09;98162.42;105385;1284;22942;-85
2022/07/07 04:28:01;;;;;;;15.70;14.20;;;;;;;15.60;80.99;98164.05;105324;1284;25127;-84
2022/07/07 04:30:29;;;;;;;16.70;15.00;;;;;;;15.84;80.61;98165.00;105333;1285;22540;-85
2022/07/07 04:32:57;;;;;;;18.90;17.10;;;;;;;15.94;81.04;98164.94;105313;1284;22572;-85
2022/07/07 04:35:25;;;;;;;22.30;20.40;;;;;;;16.03;80.18;98160.79;105378;1284;23967;-83
2022/07/07 04:37:53;;;;;;;28.80;25.80;;;;;;;15.89;80.06;98166.94;105317;1284;22572;-85
2022/07/07 04:40:21;;;;;;;22.10;20.00;;;;;;;15.79;79.92;98164.80;106286;1284;22576;-84
2022/07/07 04:42:49;;;;;;;16.70;15.10;;;;;;;15.65;80.03;98165.92;106141;1284;25437;-85
2022/07/07 04:45:17;;;;;;;23.30;20.90;;;;;;;15.62;80.72;98163.95;105318;1284;24138;-85
2022/07/07 04:47:45;;;;;;;22.90;20.60;;;;;;;15.66;80.76;98162.30;105199;1284;22567;-84
2022/07/07 04:50:14;;;;;;;32.30;29.20;;;;;;;15.61;80.72;98155.45;105172;1284;23290;-84
2022/07/07 04:52:41;;;;;;;42.50;38.90;;;;;;;15.61;80.95;98155.57;105196;1284;23407;-85
2022/07/07 04:55:09;;;;;;;37.20;33.50;;;;;;;15.65;81.24;98152.48;105268;1284;22566;-83
2022/07/07 04:57:37;;;;;;;38.00;34.80;;;;;;;15.70;80.56;98158.23;105376;1284;24410;-83
2022/07/07 05:00:06;;;;;;;31.50;28.60;;;;;;;15.74;80.57;98159.08;105393;1284;23307;-85
2022/07/07 05:02:34;;;;;;;32.40;28.20;;;;;;;15.78;80.45;98162.95;105354;1284;23353;-85
2022/07/07 05:05:02;;;;;;;29.10;26.20;;;;;;;15.72;80.47;98160.23;105446;1285;22555;-84
2022/07/07 05:07:30;;;;;;;26.20;23.20;;;;;;;15.72;80.79;98159.41;105316;1284;22559;-84
2022/07/07 05:09:58;;;;;;;24.00;21.50;;;;;;;15.76;81.65;98153.91;105193;1284;22557;-83
2022/07/07 05:12:26;;;;;;;26.10;23.60;;;;;;;16.09;82.01;98146.57;105156;1284;24429;-84
2022/07/07 05:14:54;;;;;;;28.80;25.30;;;;;;;16.40;81.21;98148.27;105201;1284;24445;-84
2022/07/07 05:17:22;;;;;;;33.20;30.10;;;;;;;16.55;80.53;98150.68;105276;1285;22728;-84
2022/07/07 05:19:50;;;;;;;31.20;28.40;;;;;;;16.59;80.32;98155.93;105354;1284;23568;-85
2022/07/07 05:22:18;;;;;;;34.20;30.60;;;;;;;16.64;80.86;98153.81;105402;1284;22553;-88
2022/07/07 05:24:46;;;;;;;30.40;27.00;;;;;;;16.67;80.13;98153.91;105344;1284;24080;-86
2022/07/07 05:27:14;;;;;;;18.90;16.90;;;;;;;16.62;80.15;98152.64;105697;1284;24322;-91
2022/07/07 05:29:42;;;;;;;15.90;14.10;;;;;;;16.56;79.99;98146.73;105511;1285;24361;-92
2022/07/07 05:32:09;;;;;;;18.70;16.80;;;;;;;16.47;80.06;98149.23;105770;1284;22569;-88
2022/07/07 05:34:37;;;;;;;31.40;28.50;;;;;;;16.44;80.08;98153.21;105464;1284;22566;-91
2022/07/07 05:37:05;;;;;;;38.00;34.40;;;;;;;16.36;80.09;98156.41;105486;1284;22569;-89
2022/07/07 05:39:33;;;;;;;22.80;20.70;;;;;;;16.32;80.10;98149.90;105512;1284;22567;-92
2022/07/07 05:42:02;;;;;;;20.80;16.10;;;;;;;16.28;80.14;98146.64;105396;1284;24165;-91
2022/07/07 05:44:30;;;;;;;17.30;15.10;;;;;;;16.27;80.11;98146.27;105736;1284;23011;-89
2022/07/07 05:46:58;;;;;;;18.40;15.10;;;;;;;16.31;80.29;98143.09;106692;1284;24170;-90
2022/07/07 05:49:26;;;;;;;22.10;18.30;;;;;;;16.38;80.38;98145.04;106029;1285;22650;-95
2022/07/07 05:51:55;;;;;;;25.40;21.00;;;;;;;16.47;80.37;98146.25;106111;1285;23053;-94
2022/07/07 05:54:23;;;;;;;30.60;28.00;;;;;;;16.57;80.11;98147.48;106296;1284;22784;-92
2022/07/07 05:56:51;;;;;;;23.50;21.50;;;;;;;16.63;80.18;98145.04;105994;1284;22717;-91
2022/07/07 05:59:19;;;;;;;18.10;15.80;;;;;;;16.65;79.88;98141.41;106151;1284;22632;-92
2022/07/07 06:01:55;;;;;;;20.20;15.40;;;;;;;16.69;80.11;98142.94;106082;1285;24084;-82
2022/07/07 06:04:23;;;;;;;23.40;20.70;;;;;;;16.71;79.76;98140.46;105714;1284;26702;-90
2022/07/07 06:06:51;;;;;;;19.10;17.20;;;;;;;16.74;79.46;98139.27;105400;1284;24095;-88
2022/07/07 06:09:19;;;;;;;24.40;21.80;;;;;;;16.80;79.56;98137.00;105547;1284;22583;-87
2022/07/07 06:11:47;;;;;;;21.90;19.90;;;;;;;16.90;79.62;98140.36;105138;1285;23146;-86
2022/07/07 06:14:15;;;;;;;20.90;18.80;;;;;;;17.00;79.28;98137.33;105238;1284;24252;-88
2022/07/07 06:16:43;;;;;;;22.00;19.90;;;;;;;17.02;79.06;98132.34;105140;1284;22688;-90
2022/07/07 06:19:13;;;;;;;19.80;17.50;;;;;;;17.14;79.44;98130.42;105256;1284;22546;-89
2022/07/07 06:21:41;;;;;;;20.10;18.10;;;;;;;17.30;79.17;98130.48;105268;1284;24143;-91
2022/07/07 06:24:09;;;;;;;17.70;15.40;;;;;;;17.43;78.69;98129.77;105313;1284;24171;-87
2022/07/07 06:26:38;;;;;;;19.30;17.60;;;;;;;17.53;78.17;98132.34;105438;1284;23024;-89
2022/07/07 06:29:06;;;;;;;17.00;14.60;;;;;;;17.59;78.20;98133.40;105297;1284;22550;-92
2022/07/07 06:31:34;;;;;;;18.20;15.00;;;;;;;17.67;77.11;98135.41;105391;1284;22607;-87
2022/07/07 06:34:03;;;;;;;13.90;10.90;;;;;;;17.77;76.74;98134.70;105506;1284;22556;-91
2022/07/07 06:36:31;;;;;;;16.20;10.40;;;;;;;17.84;77.22;98133.18;105562;1284;22720;-91
2022/07/07 06:38:59;;;;;;;15.20;11.10;;;;;;;17.85;76.29;98133.13;105500;1284;22682;-90
2022/07/07 06:41:37;;;;;;;15.10;11.90;;;;;;;17.92;76.81;98128.14;105364;1285;22568;-89
2022/07/07 06:44:06;;;;;;;16.10;11.30;;;;;;;18.03;76.70;98130.65;105341;1285;22573;-90
2022/07/07 06:46:34;;;;;;;16.20;12.90;;;;;;;18.17;76.29;98126.89;105681;1284;26701;-92
2022/07/07 06:49:03;;;;;;;14.30;11.30;;;;;;;18.25;73.96;98131.33;105755;1284;23005;-92
2022/07/07 06:51:32;;;;;;;18.50;15.20;;;;;;;18.22;73.67;98131.95;105589;1284;22682;-89
2022/07/07 06:54:00;;;;;;;18.00;12.70;;;;;;;18.26;73.31;98132.05;105776;1284;24228;-89
2022/07/07 06:56:28;;;;;;;11.90;9.30;;;;;;;18.30;73.14;98132.70;105877;1284;22570;-91
2022/07/07 06:58:56;;;;;;;16.40;10.80;;;;;;;18.36;72.90;98129.48;105606;1284;26498;-92
2022/07/07 07:01:24;;;;;;;19.00;9.10;;;;;;;18.44;72.64;98124.40;105664;1284;23966;-92
2022/07/07 07:03:52;;;;;;;11.60;7.80;;;;;;;18.50;72.58;98123.35;106857;1284;22565;-91
2022/07/07 07:06:20;;;;;;;14.20;12.80;;;;;;;18.58;72.56;98120.70;107980;1284;25370;-91
2022/07/07 07:08:48;;;;;;;14.60;10.30;;;;;;;18.69;71.67;98117.97;106828;1284;24139;-88
2022/07/07 07:11:16;;;;;;;13.40;8.50;;;;;;;18.84;72.67;98115.76;105452;1284;22566;-82
2022/07/07 07:13:47;;;;;;;10.60;7.50;;;;;;;19.20;71.99;98113.83;105356;1284;25239;-83
2022/07/07 07:16:16;;;;;;;10.90;7.40;;;;;;;19.44;71.91;98111.94;105250;1284;24421;-84
2022/07/07 07:18:45;;;;;;;13.00;7.20;;;;;;;19.69;71.10;98105.02;105229;1284;25374;-84
2022/07/07 07:21:19;;;;;;;9.40;6.30;;;;;;;19.85;71.55;98109.23;105216;1284;23989;-83
2022/07/07 07:23:47;;;;;;;11.50;6.70;;;;;;;20.13;71.39;98106.91;105226;1284;22592;-83
2022/07/07 07:26:15;;;;;;;10.80;7.00;;;;;;;20.27;71.23;98104.88;105192;1285;24010;-86
2022/07/07 07:28:43;;;;;;;13.70;6.70;;;;;;;20.22;69.06;98108.05;105378;1284;25358;-91
2022/07/07 07:31:11;;;;;;;12.70;7.70;;;;;;;20.23;70.24;98105.96;106314;1284;22848;-93
2022/07/07 07:33:39;;;;;;;12.70;7.90;;;;;;;20.28;69.75;98104.66;106632;1284;25308;-92
2022/07/07 07:36:10;;;;;;;9.10;6.20;;;;;;;20.21;67.82;98106.30;106094;1284;22563;-94
2022/07/07 07:38:39;;;;;;;7.90;6.00;;;;;;;20.15;67.82;98106.17;106081;1284;24373;-90
2022/07/07 07:41:11;;;;;;;10.70;6.70;;;;;;;20.10;67.89;98106.84;106404;1284;22557;-90
2022/07/07 07:43:39;;;;;;;12.50;6.50;;;;;;;20.15;68.23;98103.37;106270;1284;22541;-89
2022/07/07 07:46:08;;;;;;;11.40;6.40;;;;;;;20.26;67.77;98105.02;106721;1284;22601;-92
2022/07/07 07:48:37;;;;;;;13.30;6.80;;;;;;;20.28;65.18;98110.36;105981;1284;22573;-91
2022/07/07 07:51:05;;;;;;;13.50;6.80;;;;;;;20.24;65.26;98108.79;107158;1284;22622;-90
2022/07/07 07:53:33;;;;;;;10.40;6.70;;;;;;;20.28;65.22;98109.05;108567;1284;22560;-88
2022/07/07 07:56:01;;;;;;;10.60;6.80;;;;;;;20.38;63.90;98108.58;108508;1283;22742;-89
2022/07/07 07:58:29;;;;;;;12.40;6.90;;;;;;;20.45;62.88;98101.74;108463;1284;22549;-92
2022/07/07 08:00:57;;;;;;;14.20;7.50;;;;;;;20.48;61.69;98101.82;108492;1284;22669;-90
2022/07/07 08:03:25;;;;;;;15.10;7.20;;;;;;;20.46;61.86;98102.15;108492;1272;23419;-88
2022/07/07 08:05:54;;;;;;;15.80;9.80;;;;;;;20.37;60.43;98106.89;108388;1284;22593;-84
2022/07/07 08:08:42;;;;;;;27.30;16.50;;;;;;;20.25;61.97;98108.27;108957;1272;22528;31
2022/07/07 08:11:10;;;;;;;12.40;7.20;;;;;;;20.20;60.33;98104.34;108654;1282;22699;-86
2022/07/07 08:13:38;;;;;;;11.20;5.80;;;;;;;20.18;60.93;98104.15;109044;1272;22871;-85
2022/07/07 08:16:07;;;;;;;9.80;5.70;;;;;;;20.27;59.72;98106.36;109041;1272;22739;-84
2022/07/07 08:18:35;;;;;;;10.60;5.30;;;;;;;20.28;59.31;98098.95;109020;1272;22576;-85
2022/07/07 08:24:17;;;;;;;8.10;5.40;;;;;;;20.32;59.91;98098.64;106060;1272;22742;31
2022/07/07 08:26:45;;;;;;;11.10;5.00;;;;;;;20.39;59.57;98102.63;108841;1271;22557;-86
2022/07/07 08:29:13;;;;;;;10.70;5.70;;;;;;;20.48;60.26;98093.29;108852;1271;23156;-83
2022/07/07 08:31:41;;;;;;;9.60;6.70;;;;;;;20.60;59.82;98093.40;108852;1274;22546;-83
2022/07/07 08:34:09;;;;;;;13.70;6.60;;;;;;;20.64;59.14;98093.56;109080;1271;24324;-89
2022/07/07 08:36:38;;;;;;;12.00;6.20;;;;;;;20.70;59.16;98096.42;108947;1274;22576;-88
2022/07/07 08:39:06;;;;;;;11.80;6.40;;;;;;;20.79;59.56;98095.20;108840;1282;22900;-87
2022/07/07 08:41:34;;;;;;;7.10;5.00;;;;;;;20.94;57.85;98094.16;108619;1282;22539;-91
2022/07/07 08:44:03;;;;;;;8.80;5.10;;;;;;;20.98;57.50;98090.77;108934;1282;22734;-84
2022/07/07 08:46:31;;;;;;;11.10;4.90;;;;;;;21.10;57.37;98092.95;108674;1282;22907;-87
2022/07/07 08:48:59;;;;;;;7.50;5.20;;;;;;;21.14;55.31;98093.03;108909;1271;22589;-91
2022/07/07 08:51:27;;;;;;;12.30;5.60;;;;;;;21.18;56.38;98091.29;108838;1282;23927;-90
2022/07/07 08:54:03;;;;;;;8.90;5.10;;;;;;;21.37;56.88;98087.97;108968;1271;23610;31
2022/07/07 08:56:34;;;;;;;9.60;5.20;;;;;;;21.58;57.19;98086.20;108873;1282;24046;-88
2022/07/07 08:59:02;;;;;;;11.70;5.70;;;;;;;21.66;57.56;98082.82;108690;1282;22741;-87
2022/07/07 09:01:32;;;;;;;11.40;5.00;;;;;;;21.81;56.17;98078.59;108308;1282;22740;-93
2022/07/07 09:04:01;;;;;;;11.80;5.30;;;;;;;21.87;54.24;98078.43;108282;1282;22724;-88
2022/07/07 09:06:31;;;;;;;7.90;4.60;;;;;;;21.94;54.46;98077.92;108408;1283;22587;-87
2022/07/07 09:09:01;;;;;;;7.90;4.50;;;;;;;21.99;52.89;98082.85;108187;1282;22537;-91
2022/07/07 09:11:37;;;;;;;6.80;4.40;;;;;;;21.91;51.29;98081.01;108231;1281;22557;-90
2022/07/07 09:14:13;;;;;;;12.00;5.20;;;;;;;21.95;52.91;98079.27;108110;1282;25360;-92
2022/07/07 09:16:45;;;;;;;9.60;4.20;;;;;;;22.19;53.61;98076.02;108264;1282;22571;-91
2022/07/07 09:19:20;;;;;;;8.80;4.20;;;;;;;22.42;52.79;98074.06;107719;1282;25705;-92
2022/07/07 09:21:49;;;;;;;9.20;4.20;;;;;;;22.41;50.26;98076.32;107685;1282;22552;-92
2022/07/07 09:24:18;;;;;;;8.90;3.90;;;;;;;22.43;51.14;98071.10;107271;1282;25298;-92
2022/07/07 09:26:51;;;;;;;8.90;4.40;;;;;;;22.51;51.06;98076.92;107642;1282;22539;-90
2022/07/07 09:29:20;;;;;;;8.70;3.70;;;;;;;22.59;51.48;98071.52;107687;1284;22785;-93
2022/07/07 09:32:04;;;;;;;8.50;4.10;;;;;;;22.60;51.33;98070.90;107626;1282;22556;-91
2022/07/07 09:34:37;;;;;;;9.10;4.50;;;;;;;22.44;50.45;98074.02;107262;1282;22575;-91
2022/07/07 09:39:57;;;;;;;8.80;3.50;;;;;;;22.25;50.80;98077.28;107824;1282;24412;-88
2022/07/07 09:42:41;;;;;;;9.80;3.80;;;;;;;22.38;49.93;98079.66;107981;1282;25427;-92
2022/07/07 09:45:12;;;;;;;10.20;3.80;;;;;;;22.46;48.66;98080.55;107762;1282;25297;-90
2022/07/07 09:47:40;;;;;;;9.60;3.70;;;;;;;22.44;47.89;98080.69;107719;1282;22658;-92
2022/07/07 09:50:17;;;;;;;7.00;3.60;;;;;;;22.48;48.57;98074.14;107787;1282;22558;-91
2022/07/07 09:52:47;;;;;;;10.60;4.60;;;;;;;22.61;48.34;98074.05;107634;1282;22601;-92
2022/07/07 09:55:23;;;;;;;13.10;5.30;;;;;;;22.56;48.13;98069.37;108012;1282;22575;-92
2022/07/07 09:57:51;;;;;;;6.20;3.60;;;;;;;22.59;47.93;98065.32;108102;1282;22583;-92
2022/07/07 10:00:19;;;;;;;7.70;3.80;;;;;;;22.78;47.90;98068.75;107955;1282;22735;-92
2022/07/07 10:02:49;;;;;;;7.30;4.50;;;;;;;22.87;46.67;98063.91;107822;1282;25378;-87
2022/07/07 10:05:20;;;;;;;9.10;3.70;;;;;;;22.93;46.33;98063.91;107033;1282;23147;-92
2022/07/07 10:07:54;;;;;;;8.00;3.80;;;;;;;23.00;46.51;98057.96;107131;1282;22547;-91
2022/07/07 10:10:22;;;;;;;7.80;3.70;;;;;;;23.00;47.26;98059.15;107452;1282;23412;-90
2022/07/07 10:12:53;;;;;;;8.10;3.40;;;;;;;23.07;47.27;98054.58;107977;1282;22549;-90
2022/07/07 10:15:23;;;;;;;8.70;3.70;;;;;;;23.23;47.61;98046.80;107975;1282;22591;-92
2022/07/07 10:17:52;;;;;;;6.20;3.60;;;;;;;23.30;45.73;98050.64;107795;1282;22629;-90
2022/07/07 10:20:20;;;;;;;9.90;3.50;;;;;;;23.11;45.87;98055.16;107436;1284;22569;-88
2022/07/07 10:22:48;;;;;;;8.00;3.90;;;;;;;22.88;45.24;98056.16;107419;1283;23052;-90
2022/07/07 10:25:16;;;;;;;11.00;4.40;;;;;;;22.59;46.00;98051.43;107334;1283;22803;-91
2022/07/07 10:27:53;;;;;;;6.20;3.50;;;;;;;22.45;46.63;98053.54;107763;1282;22554;-93
2022/07/07 10:30:30;;;;;;;5.90;3.80;;;;;;;22.48;45.94;98052.17;107531;1282;24043;-92
2022/07/07 10:32:59;;;;;;;9.20;4.20;;;;;;;22.45;46.16;98051.27;107548;1284;22558;-93
2022/07/07 10:35:27;;;;;;;8.00;3.80;;;;;;;22.44;45.63;98056.75;107518;1282;22603;-90
2022/07/07 10:37:57;;;;;;;6.50;3.20;;;;;;;22.28;45.43;98056.09;107606;1282;22543;-90
2022/07/07 10:40:28;;;;;;;4.60;3.00;;;;;;;22.09;45.89;98052.81;107843;1282;22543;-85
2022/07/07 10:43:25;;;;;;;6.30;3.50;;;;;;;21.92;45.56;98049.59;108301;1282;22710;-91
2022/07/07 10:46:03;;;;;;;8.00;3.70;;;;;;;21.62;45.71;98051.57;107066;1290;24422;-92
2022/07/07 10:48:43;;;;;;;9.00;3.40;;;;;;;21.48;46.61;98051.11;106607;1291;23055;-91
2022/07/07 10:51:23;;;;;;;6.90;3.30;;;;;;;21.41;46.55;98053.75;106781;1291;22591;-92
2022/07/07 10:54:03;;;;;;;6.40;3.50;;;;;;;21.31;46.76;98051.43;107499;1291;24078;-88
2022/07/07 10:59:23;;;;;;;6.30;3.70;;;;;;;21.14;47.10;98048.64;107890;1285;22578;-93
2022/07/07 11:02:00;;;;;;;7.40;3.20;;;;;;;21.17;46.93;98048.45;107644;1285;25524;-89
2022/07/07 11:04:40;;;;;;;7.20;3.50;;;;;;;21.20;46.67;98048.11;107775;1285;22603;-91
2022/07/07 11:07:23;;;;;;;5.20;3.70;;;;;;;21.23;46.73;98045.74;107442;1285;22559;-90
2022/07/07 11:10:09;;;;;;;8.20;3.80;;;;;;;21.35;46.41;98042.35;107654;1284;23169;-90
2022/07/07 11:12:39;;;;;;;5.40;2.80;;;;;;;21.44;46.50;98045.41;107579;1287;22718;-91
2022/07/07 11:15:20;;;;;;;6.90;3.20;;;;;;;21.76;46.27;98042.85;106012;1285;23264;-92
2022/07/07 11:21:02;;;;;;;10.30;3.40;;;;;;;22.41;45.58;98027.92;106593;1284;22772;-91
2022/07/07 11:23:49;;;;;;;6.20;3.40;;;;;;;22.68;45.41;98026.44;106514;1284;22569;-89
2022/07/07 11:26:25;;;;;;;5.80;3.20;;;;;;;23.05;45.90;98022.27;106968;1284;22566;-91
2022/07/07 11:28:56;;;;;;;6.20;3.00;;;;;;;23.41;45.87;98017.56;107067;1284;23166;-93
2022/07/07 11:31:27;;;;;;;7.90;3.50;;;;;;;23.70;43.34;98013.47;106740;1284;22580;-92
2022/07/07 11:33:57;;;;;;;4.10;2.80;;;;;;;23.83;44.05;98012.00;106972;1284;22668;-88
2022/07/07 11:36:28;;;;;;;7.40;3.00;;;;;;;24.10;42.30;98011.75;107126;1284;23565;-90
2022/07/07 11:39:06;;;;;;;5.30;3.30;;;;;;;24.22;42.72;98015.98;107421;1284;22705;-90